Time;durP1;ratioP1;P1;durP2;ratioP2;P2;SDS_P1;SDS_P2;PMS_P1;PMS_P2;Temp;Humidity;BMP_temperature;BMP_pressure;BME280_temperature;BME280_humidity;BME280_pressure;Samples;Min_cycle;Max_cycle;Signal;HPM_P1;HPM_P2
2023/06/02 00:01:32;;;;;;;19.10;4.55;;;;;;;12.63;70.92;101994.41;5079492;28;20039;-77
2023/06/02 00:03:59;;;;;;;13.40;3.97;;;;;;;12.62;71.03;101992.66;5096028;28;20084;-77
2023/06/02 00:06:26;;;;;;;15.80;4.55;;;;;;;12.61;71.50;101990.91;5097919;28;20555;-76
2023/06/02 00:08:52;;;;;;;15.25;4.25;;;;;;;12.61;71.43;101990.91;5094498;28;20046;-77
2023/06/02 00:11:19;;;;;;;14.02;4.20;;;;;;;12.55;71.22;101995.75;5092649;28;20119;-77
2023/06/02 00:13:45;;;;;;;16.92;4.78;;;;;;;12.52;70.93;101990.53;5093415;28;20043;-76
2023/06/02 00:16:12;;;;;;;21.38;4.88;;;;;;;12.47;70.31;101989.97;5094287;28;20115;-75
2023/06/02 00:18:38;;;;;;;13.23;4.30;;;;;;;12.46;72.72;101985.56;5077484;28;20156;-77
2023/06/02 00:21:05;;;;;;;18.38;4.47;;;;;;;12.43;71.38;101987.56;5093748;28;20040;-76
2023/06/02 00:23:30;;;;;;;15.45;4.75;;;;;;;12.40;71.23;101994.00;5092788;28;20024;-77
2023/06/02 00:25:56;;;;;;;14.02;4.28;;;;;;;12.44;71.06;101992.84;5074423;28;20144;-76
2023/06/02 00:28:22;;;;;;;12.23;4.05;;;;;;;12.40;70.74;101989.50;5094524;28;20043;-75
2023/06/02 00:30:47;;;;;;;17.70;5.03;;;;;;;12.40;71.33;101986.78;5094051;28;20050;-77
2023/06/02 00:33:12;;;;;;;17.95;5.20;;;;;;;12.39;69.63;101984.19;5073425;28;20091;-77
2023/06/02 00:35:38;;;;;;;16.17;4.22;;;;;;;12.36;71.79;101987.94;5073588;28;20058;-76
2023/06/02 00:38:04;;;;;;;14.55;5.18;;;;;;;12.37;71.21;101988.81;5074910;28;20035;-75
2023/06/02 00:40:30;;;;;;;14.63;5.00;;;;;;;12.36;70.23;101987.09;5092854;28;20027;-77
2023/06/02 00:42:55;;;;;;;15.93;5.07;;;;;;;12.34;70.07;101983.59;5094989;28;20467;-77
2023/06/02 00:45:21;;;;;;;14.93;3.95;;;;;;;12.32;69.87;101985.53;5077101;28;20032;-76
2023/06/02 00:47:46;;;;;;;15.13;4.68;;;;;;;12.32;70.35;101982.84;5076981;28;20024;-76
2023/06/02 00:50:11;;;;;;;13.70;3.88;;;;;;;12.27;68.97;101982.25;5076118;28;20028;-77
2023/06/02 00:52:39;;;;;;;19.02;5.47;;;;;;;12.26;69.26;101983.25;5076751;28;20027;-77
2023/06/02 00:55:05;;;;;;;15.40;4.10;;;;;;;12.22;68.66;101986.09;5094325;28;20131;-76
2023/06/02 00:57:33;;;;;;;19.75;4.82;;;;;;;12.14;69.42;101982.16;5093434;28;20078;-76
2023/06/02 00:59:59;;;;;;;17.73;4.85;;;;;;;12.20;69.09;101989.88;5078155;28;20035;-75
2023/06/02 01:02:24;;;;;;;15.77;4.90;;;;;;;12.14;68.25;101984.84;5074753;28;20028;-77
2023/06/02 01:04:51;;;;;;;18.25;4.43;;;;;;;12.15;69.70;101979.38;5074961;28;20015;-77
2023/06/02 01:07:23;;;;;;;18.25;4.55;;;;;;;12.15;68.87;101991.97;5094222;28;20044;-76
2023/06/02 01:09:50;;;;;;;16.10;4.63;;;;;;;12.14;68.92;101991.13;5075476;28;20016;-76
2023/06/02 01:12:16;;;;;;;19.50;5.05;;;;;;;12.12;69.41;101987.63;5073402;28;20443;-75
2023/06/02 01:14:41;;;;;;;18.88;5.15;;;;;;;12.09;69.12;101984.28;5092147;28;20039;-76
2023/06/02 01:17:06;;;;;;;14.80;4.65;;;;;;;12.05;69.47;101991.69;5072042;28;20505;-75
2023/06/02 01:19:32;;;;;;;14.15;4.13;;;;;;;12.06;68.48;101990.72;5077892;28;20031;-76
2023/06/02 01:22:01;;;;;;;16.27;4.68;;;;;;;12.04;69.29;101992.66;5075943;28;20490;-75
2023/06/02 01:24:40;;;;;;;19.02;5.13;;;;;;;12.05;67.99;101989.00;5076740;28;20061;-76
2023/06/02 01:27:06;;;;;;;17.90;4.50;;;;;;;11.99;67.11;101998.31;5109845;28;20043;-75
2023/06/02 01:29:35;;;;;;;15.98;4.78;;;;;;;11.95;68.11;101990.50;5106425;28;20285;-76
2023/06/02 01:32:05;;;;;;;22.77;5.53;;;;;;;11.95;67.50;101987.78;5112000;28;20051;-76
2023/06/02 01:34:38;;;;;;;21.42;4.82;;;;;;;11.92;67.49;101993.34;5105006;28;20416;-76
2023/06/02 01:37:04;;;;;;;18.77;5.32;;;;;;;11.88;67.49;101995.38;5094054;28;20036;-76
2023/06/02 01:39:30;;;;;;;18.45;4.97;;;;;;;11.83;67.84;101995.66;5118075;28;20016;-75
2023/06/02 01:42:00;;;;;;;16.92;4.55;;;;;;;11.79;68.33;101988.72;5110899;28;20016;-76
2023/06/02 01:44:30;;;;;;;14.68;4.65;;;;;;;11.81;69.76;101992.16;5090422;28;20032;-75
2023/06/02 01:46:56;;;;;;;17.83;5.40;;;;;;;11.81;71.18;101986.78;5118173;28;20035;-75
2023/06/02 01:49:21;;;;;;;24.58;5.40;;;;;;;11.77;68.21;101987.06;5094965;28;20051;-75
2023/06/02 01:51:46;;;;;;;21.73;4.90;;;;;;;11.78;69.54;101988.81;5101342;28;20029;-75
2023/06/02 01:54:12;;;;;;;18.20;4.55;;;;;;;11.72;68.56;101982.81;5093341;28;20441;-75
2023/06/02 01:56:37;;;;;;;20.58;5.43;;;;;;;11.71;69.42;101982.91;5103882;28;20044;-75
2023/06/02 01:59:03;;;;;;;19.55;5.47;;;;;;;11.72;69.10;101981.97;5113832;28;20047;-76
2023/06/02 02:01:28;;;;;;;20.25;4.57;;;;;;;11.64;69.85;101978.84;5100580;28;20044;-75
2023/06/02 02:03:54;;;;;;;16.90;4.85;;;;;;;11.65;69.82;101978.75;5086804;28;20024;-75
2023/06/02 02:06:34;;;;;;;16.60;4.97;;;;;;;11.65;70.00;101980.59;5101717;28;20024;-75
2023/06/02 02:08:59;;;;;;;;;;;;;;;11.79;69.67;101980.63;5091896;28;20028;-75
2023/06/02 02:11:28;;;;;;;18.80;4.95;;;;;;;11.69;70.10;101977.63;5100207;28;19912;-74
2023/06/02 02:13:54;;;;;;;18.02;4.50;;;;;;;11.68;69.84;101985.78;5097776;28;20108;-75
2023/06/02 02:16:20;;;;;;;20.02;5.07;;;;;;;11.69;70.26;101984.84;5098630;28;20101;-76
2023/06/02 02:18:46;;;;;;;21.10;5.47;;;;;;;11.69;69.93;101980.31;5100317;28;20031;-75
2023/06/02 02:21:12;;;;;;;19.55;4.80;;;;;;;11.66;69.46;101979.63;5096186;28;20019;-75
2023/06/02 02:23:38;;;;;;;24.73;5.32;;;;;;;11.65;71.00;101985.97;5115052;28;20012;-75
2023/06/02 02:26:03;;;;;;;15.13;4.43;;;;;;;11.67;72.03;101986.72;5099484;28;20051;-75
2023/06/02 02:28:29;;;;;;;16.17;4.75;;;;;;;11.65;71.73;101983.28;5096539;28;20448;-75
2023/06/02 02:30:55;;;;;;;14.20;4.43;;;;;;;11.68;71.13;101988.47;5093916;28;20341;-76
2023/06/02 02:33:21;;;;;;;16.67;4.82;;;;;;;11.67;70.25;101984.03;5092881;28;20028;-76
2023/06/02 02:35:46;;;;;;;18.83;4.95;;;;;;;11.65;71.76;101981.44;5091010;28;20062;-75
2023/06/02 02:38:11;;;;;;;19.63;4.85;;;;;;;11.66;72.63;101974.25;5101873;28;20027;-75
2023/06/02 02:40:37;;;;;;;18.02;4.80;;;;;;;11.65;71.39;101981.44;5096056;28;20032;-75
2023/06/02 02:43:02;;;;;;;19.65;4.45;;;;;;;11.65;72.43;101980.59;5111600;28;20116;-75
2023/06/02 02:45:27;;;;;;;14.65;4.63;;;;;;;11.65;72.06;101973.38;5110690;28;20032;-76
2023/06/02 02:47:52;;;;;;;24.40;5.20;;;;;;;11.63;72.34;101974.44;5099607;28;20116;-75
2023/06/02 02:50:18;;;;;;;16.45;5.05;;;;;;;11.64;71.26;101978.84;5108821;28;20061;-75
2023/06/02 02:52:44;;;;;;;17.30;5.22;;;;;;;11.62;71.91;101970.00;5114696;28;20031;-75
2023/06/02 02:55:09;;;;;;;24.08;5.78;;;;;;;11.64;71.58;101970.75;5092870;28;20030;-76
2023/06/02 02:57:34;;;;;;;18.55;5.28;;;;;;;11.65;72.07;101967.97;5095013;28;20032;-75
2023/06/02 03:00:00;;;;;;;20.00;5.22;;;;;;;11.64;71.52;101974.34;5096733;28;20027;-75
2023/06/02 03:02:26;;;;;;;21.67;5.25;;;;;;;11.67;72.88;101963.38;5114818;28;20024;-75
2023/06/02 03:04:54;;;;;;;19.27;5.20;;;;;;;11.68;72.84;101977.72;5093052;28;20020;-75
2023/06/02 03:07:19;;;;;;;18.15;5.18;;;;;;;11.66;73.60;101969.72;5095906;28;20027;-75
2023/06/02 03:09:44;;;;;;;20.02;5.28;;;;;;;11.70;72.58;101970.41;5109225;28;20047;-75
2023/06/02 03:12:10;;;;;;;18.73;5.50;;;;;;;11.71;72.93;101972.13;5095331;28;20024;-75
2023/06/02 03:14:35;;;;;;;22.88;5.97;;;;;;;11.74;72.96;101976.47;5094820;28;20023;-74
2023/06/02 03:17:01;;;;;;;21.10;5.45;;;;;;;11.71;74.00;101982.91;5097465;28;20079;-75
2023/06/02 03:19:27;;;;;;;18.20;5.32;;;;;;;11.74;73.04;101980.03;5092178;28;20042;-75
2023/06/02 03:21:55;;;;;;;17.55;4.95;;;;;;;11.74;73.64;101979.16;5103382;28;20024;-75
2023/06/02 03:24:21;;;;;;;21.02;6.00;;;;;;;11.72;72.36;101974.72;5113900;28;20049;-75
2023/06/02 03:26:46;;;;;;;15.85;4.85;;;;;;;11.71;72.50;101978.41;5108107;28;21231;-75
2023/06/02 03:29:13;;;;;;;16.48;5.03;;;;;;;11.69;71.66;101987.53;5090346;28;20133;-75
2023/06/02 03:31:39;;;;;;;19.35;4.68;;;;;;;11.69;72.15;101984.84;5097342;28;20366;-75
2023/06/02 03:34:06;;;;;;;20.35;5.18;;;;;;;11.69;73.05;101977.63;5103718;28;20389;-75
2023/06/02 03:36:35;;;;;;;22.63;4.93;;;;;;;11.67;71.32;101981.34;5113290;28;20043;-75
2023/06/02 03:39:03;;;;;;;15.27;4.80;;;;;;;11.67;70.96;101984.03;5111605;28;20387;-75
2023/06/02 03:41:28;;;;;;;19.13;4.68;;;;;;;11.63;71.35;101985.22;5085895;28;20088;-75
2023/06/02 03:43:53;;;;;;;20.10;5.38;;;;;;;11.65;73.12;101986.81;5095524;28;20019;-76
2023/06/02 03:46:19;;;;;;;18.48;4.82;;;;;;;11.63;70.70;101994.16;5092349;28;20035;-74
2023/06/02 03:48:44;;;;;;;19.58;5.35;;;;;;;11.61;71.64;101993.38;5085925;28;20023;-75
2023/06/02 03:51:09;;;;;;;16.95;4.30;;;;;;;11.60;70.72;102001.56;5109733;28;20049;-74
2023/06/02 03:53:34;;;;;;;18.50;4.82;;;;;;;11.57;72.26;101993.63;5095721;28;20062;-75
2023/06/02 03:56:00;;;;;;;20.60;5.55;;;;;;;11.53;70.93;101991.13;5096938;28;20063;-75
2023/06/02 03:58:25;;;;;;;18.20;4.55;;;;;;;11.56;70.05;101997.31;5094614;28;20028;-75
2023/06/02 04:00:50;;;;;;;16.95;5.25;;;;;;;11.56;70.92;101991.91;5112487;28;20150;-75
2023/06/02 04:03:16;;;;;;;17.58;4.57;;;;;;;11.52;72.06;101996.59;5093617;28;20027;-75
2023/06/02 04:05:41;;;;;;;19.27;5.35;;;;;;;11.56;71.86;101997.31;5086634;28;20035;-75
2023/06/02 04:08:07;;;;;;;21.73;4.40;;;;;;;11.56;70.33;101992.78;5086181;28;20024;-75
2023/06/02 04:10:33;;;;;;;15.55;4.47;;;;;;;11.59;72.50;101997.13;5089057;28;20111;-75
2023/06/02 04:12:58;;;;;;;22.38;5.68;;;;;;;11.55;70.67;101993.72;5104044;28;20033;-75
2023/06/02 04:15:24;;;;;;;21.88;5.63;;;;;;;11.51;70.74;102000.28;5112090;28;20123;-77
2023/06/02 04:17:49;;;;;;;19.38;5.78;;;;;;;11.51;71.11;102001.13;5106061;28;20020;-75
2023/06/02 04:20:14;;;;;;;17.25;5.25;;;;;;;11.50;71.33;101996.69;5105283;28;20383;-75
2023/06/02 04:22:40;;;;;;;21.75;5.13;;;;;;;11.47;70.50;101996.88;5108702;28;20143;-75
2023/06/02 04:25:06;;;;;;;18.15;4.80;;;;;;;11.45;70.32;102001.50;5111181;28;20108;-74
2023/06/02 04:27:31;;;;;;;17.15;5.15;;;;;;;11.45;70.42;102001.50;5112861;28;20023;-75
2023/06/02 04:29:58;;;;;;;13.88;4.20;;;;;;;11.44;70.90;101991.66;5109781;28;20027;-76
2023/06/02 04:32:23;;;;;;;18.15;5.03;;;;;;;11.47;70.63;101993.31;5087988;28;20088;-75
2023/06/02 04:34:50;;;;;;;15.70;4.85;;;;;;;11.47;70.73;101996.03;5080137;28;20020;-75
2023/06/02 04:37:15;;;;;;;18.85;4.40;;;;;;;11.42;69.79;101996.28;5091259;28;20035;-75
2023/06/02 04:39:41;;;;;;;17.13;4.63;;;;;;;11.44;70.37;101999.75;5103909;28;20023;-75
2023/06/02 04:42:07;;;;;;;18.67;4.47;;;;;;;11.44;70.33;101998.88;5106341;28;20023;-75
2023/06/02 04:44:34;;;;;;;17.17;4.32;;;;;;;11.38;69.08;102008.19;5078554;28;20035;-75
2023/06/02 04:46:59;;;;;;;19.45;5.00;;;;;;;11.40;68.80;101998.19;5105432;28;20064;-76
2023/06/02 04:49:24;;;;;;;19.83;4.60;;;;;;;11.39;69.00;101999.16;5094585;28;20028;-75
2023/06/02 04:51:51;;;;;;;21.50;4.63;;;;;;;11.40;70.52;102000.03;5100861;28;20047;-75
2023/06/02 04:54:16;;;;;;;16.27;4.47;;;;;;;11.40;69.73;102002.72;5083515;28;20070;-76
2023/06/02 04:56:42;;;;;;;14.07;4.40;;;;;;;11.39;70.60;102001.84;5092496;28;20376;-75
2023/06/02 04:59:07;;;;;;;12.68;4.25;;;;;;;11.40;69.87;102005.41;5088247;28;20098;-75
2023/06/02 05:01:33;;;;;;;12.75;3.88;;;;;;;11.43;70.62;102008.78;5087905;28;20025;-75
2023/06/02 05:03:58;;;;;;;15.07;4.57;;;;;;;11.45;69.49;102009.56;5085942;28;20023;-75
2023/06/02 05:06:24;;;;;;;16.13;4.22;;;;;;;11.44;70.01;102013.22;5090210;28;20105;-75
2023/06/02 05:08:50;;;;;;;19.98;4.63;;;;;;;11.44;69.15;102020.44;5082208;28;20023;-75
2023/06/02 05:11:16;;;;;;;17.85;3.97;;;;;;;11.45;70.06;102022.13;5104772;28;20024;-74
2023/06/02 05:13:41;;;;;;;21.83;4.70;;;;;;;11.45;71.56;102025.72;5096965;28;20032;-75
2023/06/02 05:16:06;;;;;;;17.23;4.25;;;;;;;11.47;69.70;102018.41;5106215;28;20112;-75
2023/06/02 05:18:32;;;;;;;17.13;3.80;;;;;;;11.46;69.33;102013.97;5112908;28;20108;-75
2023/06/02 05:20:58;;;;;;;16.17;4.28;;;;;;;11.43;70.09;102022.22;5117249;28;20020;-77
2023/06/02 05:23:23;;;;;;;13.43;3.72;;;;;;;11.46;70.67;102023.88;5097942;28;20054;-76
2023/06/02 05:25:51;;;;;;;14.30;4.63;;;;;;;11.48;70.00;102032.72;5101827;28;20035;-75
2023/06/02 05:28:17;;;;;;;17.23;3.92;;;;;;;11.47;69.71;102029.19;5086245;28;20126;-75
2023/06/02 05:30:42;;;;;;;21.02;4.30;;;;;;;11.48;69.36;102027.34;5115321;28;20031;-75
2023/06/02 05:33:07;;;;;;;17.15;3.90;;;;;;;11.49;68.21;102023.69;5095265;28;20038;-74
2023/06/02 05:35:33;;;;;;;16.90;4.07;;;;;;;11.49;68.93;102026.41;5089021;28;20095;-74
2023/06/02 05:37:58;;;;;;;19.70;4.07;;;;;;;11.50;68.54;102025.44;5090782;28;20017;-75
2023/06/02 05:40:23;;;;;;;14.50;3.80;;;;;;;11.51;67.95;102017.28;5100738;28;20039;-74
2023/06/02 05:42:48;;;;;;;14.75;3.83;;;;;;;11.53;68.76;102018.03;5082475;28;20087;-75
2023/06/02 05:45:14;;;;;;;11.75;3.53;;;;;;;11.54;69.12;102027.88;5102730;28;20038;-75
2023/06/02 05:47:39;;;;;;;14.43;3.90;;;;;;;11.56;69.61;102025.09;5109073;28;20405;-75
2023/06/02 05:50:05;;;;;;;16.15;4.32;;;;;;;11.58;69.05;102030.38;5087512;28;20119;-76
2023/06/02 05:52:30;;;;;;;14.68;3.80;;;;;;;11.60;69.01;102036.56;5112591;28;20108;-75
2023/06/02 05:54:56;;;;;;;14.55;3.85;;;;;;;11.65;69.25;102020.97;5101745;28;20024;-76
2023/06/02 05:57:21;;;;;;;16.48;4.25;;;;;;;11.67;68.63;102032.50;5089944;28;20044;-75
2023/06/02 05:59:46;;;;;;;15.07;3.55;;;;;;;11.63;68.73;102031.84;5107841;28;20051;-75
2023/06/02 06:02:12;;;;;;;16.30;4.10;;;;;;;11.64;68.99;102032.69;5107613;28;20104;-75
2023/06/02 06:04:37;;;;;;;17.30;3.75;;;;;;;11.69;69.23;102036.00;5079803;28;20068;-75
2023/06/02 06:07:03;;;;;;;19.08;4.03;;;;;;;11.68;69.21;102031.56;5099857;28;20058;-75
2023/06/02 06:09:28;;;;;;;15.23;3.67;;;;;;;11.66;68.46;102030.81;5108067;28;20028;-75
2023/06/02 06:11:54;;;;;;;18.88;3.80;;;;;;;11.64;69.62;102027.31;5097254;28;20033;-75
2023/06/02 06:14:19;;;;;;;18.33;3.90;;;;;;;11.65;69.24;102029.06;5115641;28;20111;-75
2023/06/02 06:16:45;;;;;;;13.27;3.70;;;;;;;11.68;69.92;102026.19;5113866;28;20205;-74
2023/06/02 06:19:13;;;;;;;21.20;4.50;;;;;;;11.68;69.43;102028.88;5103870;28;20539;-75
2023/06/02 06:21:38;;;;;;;14.70;3.90;;;;;;;11.69;68.91;102031.47;5092509;28;20024;-75
2023/06/02 06:24:07;;;;;;;15.27;4.07;;;;;;;11.71;68.58;102028.69;5096175;28;20035;-75
2023/06/02 06:26:32;;;;;;;21.48;4.30;;;;;;;11.73;67.53;102037.56;5116359;28;20099;-74
2023/06/02 06:28:58;;;;;;;19.67;5.22;;;;;;;11.71;67.44;102029.56;5098209;28;20378;-75
2023/06/02 06:31:25;;;;;;;13.20;3.25;;;;;;;11.75;68.23;102035.63;5114869;28;20020;-75
2023/06/02 06:33:50;;;;;;;15.80;3.95;;;;;;;11.80;66.98;102030.84;5125310;28;20301;-74
2023/06/02 06:36:15;;;;;;;22.85;3.50;;;;;;;11.80;65.61;102035.34;5099234;28;20111;-75
2023/06/02 06:38:41;;;;;;;19.02;4.18;;;;;;;11.80;67.95;102032.66;5097272;28;20032;-74
2023/06/02 06:41:06;;;;;;;21.40;4.05;;;;;;;11.81;69.59;102037.09;5099922;28;20027;-76
2023/06/02 06:43:32;;;;;;;12.45;3.78;;;;;;;11.80;67.28;102036.25;5097673;28;20038;-75
2023/06/02 06:45:59;;;;;;;15.05;3.67;;;;;;;11.83;66.71;102037.84;5116573;28;20509;-75
2023/06/02 06:48:24;;;;;;;17.38;4.60;;;;;;;11.90;67.75;102033.84;5118925;28;20035;-75
2023/06/02 06:50:49;;;;;;;24.17;4.60;;;;;;;11.89;67.12;102038.38;5098312;28;20175;-75
2023/06/02 06:53:15;;;;;;;15.93;4.15;;;;;;;11.92;69.37;102041.84;5095929;28;20043;-75
2023/06/02 06:55:40;;;;;;;17.50;3.55;;;;;;;11.95;67.41;102034.47;5100353;28;20140;-75
2023/06/02 06:58:05;;;;;;;15.73;4.18;;;;;;;11.95;66.25;102038.97;5118340;28;20042;-75
2023/06/02 07:00:31;;;;;;;16.40;3.88;;;;;;;12.00;67.33;102039.59;5118447;28;20035;-75
2023/06/02 07:02:57;;;;;;;17.40;3.28;;;;;;;12.07;66.21;102038.25;5097357;28;20031;-76
2023/06/02 07:05:22;;;;;;;18.42;3.80;;;;;;;12.07;67.52;102046.34;5117680;28;20028;-75
2023/06/02 07:07:48;;;;;;;21.27;5.10;;;;;;;12.10;66.20;102045.31;5096757;28;20139;-75
2023/06/02 07:10:16;;;;;;;16.70;4.40;;;;;;;12.12;65.84;102049.63;5114658;28;20101;-75
2023/06/02 07:12:41;;;;;;;14.52;3.90;;;;;;;12.15;66.36;102044.06;5117072;28;20038;-75
2023/06/02 07:15:07;;;;;;;19.45;4.03;;;;;;;12.21;65.97;102042.78;5101249;28;20091;-75
2023/06/02 07:17:33;;;;;;;16.85;4.45;;;;;;;12.24;67.14;102042.63;5117307;28;20119;-75
2023/06/02 07:19:58;;;;;;;19.42;4.68;;;;;;;12.24;66.52;102046.19;5094232;28;20031;-75
2023/06/02 07:22:24;;;;;;;14.25;3.60;;;;;;;12.29;64.87;102045.03;5097384;28;20035;-76
2023/06/02 07:24:49;;;;;;;15.68;4.05;;;;;;;12.34;63.88;102040.22;5106626;28;20012;-77
2023/06/02 07:27:14;;;;;;;20.05;4.25;;;;;;;12.39;64.94;102046.22;5098606;28;20028;-75
2023/06/02 07:29:40;;;;;;;15.98;3.85;;;;;;;12.44;63.68;102057.56;5116850;28;20154;-75
2023/06/02 07:32:08;;;;;;;19.05;4.50;;;;;;;12.47;63.62;102060.06;5106522;28;20023;-75
2023/06/02 07:34:34;;;;;;;15.07;3.88;;;;;;;12.54;64.07;102056.03;5095226;28;20048;-75
2023/06/02 07:37:00;;;;;;;20.52;3.80;;;;;;;12.60;64.94;102065.56;5106672;28;20035;-72
2023/06/02 07:39:26;;;;;;;20.80;4.88;;;;;;;12.59;63.91;102059.31;5099559;28;20024;-69
2023/06/02 07:41:52;;;;;;;14.77;3.95;;;;;;;12.66;66.94;102062.47;5122791;28;20106;-74
2023/06/02 07:44:17;;;;;;;10.70;3.35;;;;;;;12.71;64.66;102059.53;5117693;28;20570;-75
2023/06/02 07:46:43;;;;;;;14.55;3.53;;;;;;;12.70;64.90;102052.38;5117857;28;20019;-74
2023/06/02 07:49:09;;;;;;;18.27;3.95;;;;;;;12.71;64.24;102054.13;5103403;28;20085;-79
2023/06/02 07:51:34;;;;;;;18.85;4.05;;;;;;;12.74;64.06;102049.38;5079137;28;20027;-76
2023/06/02 07:54:00;;;;;;;18.52;4.15;;;;;;;12.77;65.57;102045.63;5094227;28;20063;-75
2023/06/02 07:56:25;;;;;;;20.77;4.43;;;;;;;12.87;65.39;102051.28;5101575;28;20054;-75
2023/06/02 07:58:50;;;;;;;25.02;4.68;;;;;;;12.91;65.19;102044.75;5116758;28;20027;-75
2023/06/02 08:01:16;;;;;;;17.23;3.30;;;;;;;12.98;64.18;102043.38;5115824;28;20043;-75
2023/06/02 08:03:41;;;;;;;15.77;3.90;;;;;;;13.00;62.66;102048.69;5090936;28;20016;-75
2023/06/02 08:06:06;;;;;;;14.48;4.18;;;;;;;13.04;63.46;102050.22;5110008;28;20059;-72
2023/06/02 08:08:32;;;;;;;21.92;4.18;;;;;;;13.10;63.47;102044.41;5121883;28;20026;-75
2023/06/02 08:10:57;;;;;;;16.55;3.58;;;;;;;13.19;65.47;102038.44;5120473;28;20043;-75
2023/06/02 08:13:23;;;;;;;23.50;4.03;;;;;;;13.18;63.33;102044.78;5099526;28;20031;-76
2023/06/02 08:15:48;;;;;;;15.35;4.25;;;;;;;13.20;63.48;102050.94;5088758;28;20081;-75
2023/06/02 08:18:21;;;;;;;13.95;3.60;;;;;;;13.27;62.52;102041.47;5096958;28;20032;-74
2023/06/02 08:20:46;;;;;;;13.82;3.45;;;;;;;13.35;61.45;102034.75;5093433;28;20088;-75
2023/06/02 08:23:12;;;;;;;15.55;4.10;;;;;;;13.41;62.48;102040.63;5118585;28;20103;-75
2023/06/02 08:25:38;;;;;;;18.00;3.55;;;;;;;13.52;61.84;102048.00;5110529;28;20024;-75
2023/06/02 08:28:06;;;;;;;18.80;4.45;;;;;;;13.57;61.16;102051.28;5088701;28;20024;-75
2023/06/02 08:30:32;;;;;;;19.58;4.18;;;;;;;13.62;62.88;102041.00;5093758;28;20062;-76
2023/06/02 08:32:59;;;;;;;19.75;4.78;;;;;;;13.69;64.30;102048.69;5096162;28;20024;-75
2023/06/02 08:35:25;;;;;;;16.10;4.28;;;;;;;13.75;63.21;102048.31;5117499;28;20175;-76
2023/06/02 08:37:50;;;;;;;19.20;4.35;;;;;;;13.78;62.83;102040.00;5102378;28;20049;-75
2023/06/02 08:40:17;;;;;;;16.50;4.22;;;;;;;13.90;64.80;102047.25;5117461;28;20061;-75
2023/06/02 08:42:42;;;;;;;15.00;4.07;;;;;;;14.04;61.62;102042.72;5116329;28;20107;-76
2023/06/02 08:45:08;;;;;;;17.73;4.00;;;;;;;14.18;61.32;102042.63;5112571;28;20039;-76
2023/06/02 08:47:33;;;;;;;16.98;4.03;;;;;;;14.28;59.32;102041.03;5098985;28;20046;-76
2023/06/02 08:50:03;;;;;;;14.68;3.65;;;;;;;14.40;62.90;102041.13;5116258;28;20019;-76
2023/06/02 08:52:31;;;;;;;15.60;4.15;;;;;;;14.46;58.57;102038.00;5096662;28;20486;-75
2023/06/02 08:54:56;;;;;;;20.55;4.68;;;;;;;14.56;58.97;102044.47;5114917;28;20091;-75
2023/06/02 08:57:22;;;;;;;14.13;3.92;;;;;;;14.58;59.50;102047.06;5092875;28;20044;-75
2023/06/02 08:59:49;;;;;;;17.58;4.45;;;;;;;14.51;58.38;102041.25;5094497;28;20031;-75
2023/06/02 09:02:15;;;;;;;16.45;3.95;;;;;;;14.41;57.26;102038.31;5117926;28;20047;-75
2023/06/02 09:04:41;;;;;;;20.38;4.38;;;;;;;14.40;59.79;102033.03;5115784;28;20032;-76
2023/06/02 09:07:12;;;;;;;20.45;4.32;;;;;;;14.41;61.04;102032.91;5099647;28;20069;-75
2023/06/02 09:09:43;;;;;;;13.77;4.25;;;;;;;14.50;59.27;102034.09;5115369;28;20040;-75
2023/06/02 09:12:08;;;;;;;17.10;4.28;;;;;;;14.64;60.32;102035.84;5095724;28;20051;-75
2023/06/02 09:14:35;;;;;;;18.48;4.15;;;;;;;14.71;61.26;102031.72;5095099;28;20028;-75
2023/06/02 09:17:01;;;;;;;18.40;4.40;;;;;;;14.72;57.74;102043.44;5089407;28;20027;-75
2023/06/02 09:19:26;;;;;;;18.30;4.50;;;;;;;14.77;56.95;102033.13;5096554;28;20031;-76
2023/06/02 09:22:03;;;;;;;18.35;4.25;;;;;;;14.80;57.66;102032.91;5086553;28;20092;-75
2023/06/02 09:24:32;;;;;;;18.80;4.15;;;;;;;14.82;56.15;102037.22;5094708;28;20115;-75
2023/06/02 09:26:58;;;;;;;16.37;4.43;;;;;;;14.83;57.47;102029.97;5098514;28;20020;-76
2023/06/02 09:29:23;;;;;;;15.45;3.80;;;;;;;14.77;56.31;102035.81;5101281;28;20280;-75
2023/06/02 09:31:52;;;;;;;15.70;4.05;;;;;;;14.74;57.99;102025.22;5101701;28;20058;-76
2023/06/02 09:34:18;;;;;;;16.58;4.05;;;;;;;14.75;58.85;102030.53;5103792;28;20088;-75
2023/06/02 09:36:47;;;;;;;21.90;4.13;;;;;;;14.68;57.48;102027.41;5103049;28;20115;-76
2023/06/02 09:39:12;;;;;;;16.10;3.97;;;;;;;14.70;56.60;102026.41;5117162;28;20031;-75
2023/06/02 09:41:40;;;;;;;21.98;4.53;;;;;;;14.77;56.98;102033.13;5118146;28;20403;-76
2023/06/02 09:44:15;;;;;;;15.57;3.92;;;;;;;14.89;57.76;102023.25;5099177;28;20024;-76
2023/06/02 09:46:44;;;;;;;18.42;4.97;;;;;;;14.93;57.63;102028.31;5119849;28;20127;-75
2023/06/02 09:49:10;;;;;;;18.83;4.63;;;;;;;14.95;57.88;102017.38;5097642;28;20043;-76
2023/06/02 09:51:38;;;;;;;19.80;4.60;;;;;;;14.93;58.48;102030.16;5093281;28;20127;-75
2023/06/02 09:54:04;;;;;;;17.95;4.45;;;;;;;14.93;59.33;102024.75;5106569;28;20401;-76
2023/06/02 09:56:34;;;;;;;16.63;4.50;;;;;;;15.11;60.34;102022.53;5113101;28;20048;-76
2023/06/02 09:59:00;;;;;;;19.17;5.45;;;;;;;15.12;58.52;102011.59;5102175;28;20401;-76
2023/06/02 10:01:26;;;;;;;17.45;5.47;;;;;;;15.07;57.96;102015.63;5104472;28;20028;-76
2023/06/02 10:03:51;;;;;;;18.33;5.03;;;;;;;15.05;59.32;102013.00;5112437;28;20396;-77
2023/06/02 10:06:33;;;;;;;15.75;4.75;;;;;;;15.11;59.71;102015.28;5108594;28;20031;-75
2023/06/02 10:09:09;;;;;;;17.10;4.90;;;;;;;15.13;60.71;102009.75;5090373;28;20020;-75
2023/06/02 10:11:43;;;;;;;14.95;4.57;;;;;;;15.12;59.95;102010.72;5117215;28;20474;-76
2023/06/02 10:14:38;;;;;;;15.48;4.28;;;;;;;15.18;60.96;102002.16;5116100;28;20088;-76
2023/06/02 10:17:07;;;;;;;21.67;4.50;;;;;;;15.11;58.15;102007.16;5094970;28;20458;-77
2023/06/02 10:19:57;;;;;;;15.93;4.78;;;;;;;15.09;60.91;102005.53;5107338;28;20060;-76
2023/06/02 10:22:48;;;;;;;21.67;5.68;;;;;;;14.99;61.11;102006.25;5110074;28;20035;-76
2023/06/02 10:25:35;;;;;;;19.60;4.65;;;;;;;15.07;61.73;102005.66;5092949;28;20325;-75
2023/06/02 10:28:02;;;;;;;22.17;5.30;;;;;;;15.16;62.68;102018.50;5099414;28;20028;-75
2023/06/02 10:30:33;;;;;;;20.80;4.70;;;;;;;15.16;60.47;102015.81;5097635;28;20020;-75
2023/06/02 10:32:58;;;;;;;15.48;4.55;;;;;;;15.20;59.95;102005.63;5097817;28;20035;-76
2023/06/02 10:35:59;;;;;;;22.42;5.15;;;;;;;15.28;61.65;102013.16;5090860;28;20049;-75
2023/06/02 10:38:38;;;;;;;19.50;5.40;;;;;;;15.44;62.67;102012.88;5092144;28;20031;-75
2023/06/02 10:41:04;;;;;;;12.90;4.17;;;;;;;15.53;60.09;102001.34;5118671;28;20028;-77
2023/06/02 10:43:33;;;;;;;15.95;5.10;;;;;;;15.55;60.83;102000.25;5099312;28;20051;-76
2023/06/02 10:46:18;;;;;;;27.30;5.80;;;;;;;15.64;60.35;102005.97;5095609;28;20550;-76
2023/06/02 10:48:44;;;;;;;19.45;4.95;;;;;;;15.69;59.20;101996.47;5094530;28;20042;-77
2023/06/02 10:51:10;;;;;;;19.55;5.32;;;;;;;15.83;61.88;102000.00;5109127;28;20024;-76
2023/06/02 10:54:09;;;;;;;15.57;4.70;;;;;;;15.91;59.46;101997.56;5112413;28;20039;-76
2023/06/02 10:56:44;;;;;;;19.23;4.93;;;;;;;15.91;60.61;102002.97;5048977;28;20055;-75
2023/06/02 10:59:29;;;;;;;14.38;4.22;;;;;;;15.87;59.58;102015.03;5111763;28;20100;-75
2023/06/02 11:01:55;;;;;;;21.13;5.18;;;;;;;15.80;59.30;102011.06;5107820;28;20031;-75
2023/06/02 11:04:24;;;;;;;18.55;4.75;;;;;;;15.67;59.76;102009.28;5096880;28;20038;-76
2023/06/02 11:07:13;;;;;;;20.00;4.97;;;;;;;15.75;59.97;102000.56;5104845;28;20036;-75
2023/06/02 11:09:42;;;;;;;18.77;5.28;;;;;;;15.94;60.64;102005.44;5097589;28;20016;-76
2023/06/02 11:12:08;;;;;;;17.52;4.85;;;;;;;16.16;62.09;101999.19;5092823;28;20036;-75
2023/06/02 11:15:00;;;;;;;20.13;5.43;;;;;;;16.27;61.45;101995.66;5097460;28;20019;-77
2023/06/02 11:17:30;;;;;;;26.88;5.50;;;;;;;16.28;60.22;101991.94;5105171;28;20032;-75